createdAt,value
2022-09-13T00:09:18.045Z,1483.12073
2022-09-13T00:24:20.260Z,952.02222
2022-09-13T00:39:22.507Z,757.09778
2022-09-13T00:54:24.711Z,746.7395
2022-09-13T01:09:26.918Z,425.63208
2022-09-13T01:24:29.237Z,414.33212
2022-09-13T01:39:31.735Z,290.0325
2022-09-13T01:54:33.997Z,60.26649
2022-09-13T02:09:36.305Z,19.77494
2022-09-13T02:24:38.710Z,1.88333
2022-09-13T02:39:41.019Z,0
2022-09-13T02:54:43.513Z,0
2022-09-13T03:09:45.806Z,0
2022-09-13T03:24:48.161Z,0
2022-09-13T03:39:50.416Z,0
2022-09-13T03:54:52.963Z,0
2022-09-13T04:09:55.231Z,0
2022-09-13T04:25:01.531Z,0
2022-09-13T04:40:04.694Z,0
2022-09-13T04:55:07.049Z,0
2022-09-13T05:10:09.257Z,0
2022-09-13T05:25:11.528Z,0
2022-09-13T05:40:13.931Z,0
2022-09-13T05:55:16.676Z,0
2022-09-13T06:10:19.187Z,0
2022-09-13T06:25:21.369Z,0
2022-09-13T06:40:25.345Z,0
2022-09-13T06:55:27.741Z,0
2022-09-13T07:10:30.034Z,0
2022-09-13T07:25:32.274Z,0
2022-09-13T07:40:34.743Z,0
2022-09-13T07:55:37.051Z,0
2022-09-13T08:10:39.297Z,0
2022-09-13T08:25:41.560Z,0
2022-09-13T08:40:43.800Z,0
2022-09-13T08:55:46.269Z,0
2022-09-13T09:10:48.596Z,0
2022-09-13T09:25:50.895Z,0
2022-09-13T09:40:53.144Z,0
2022-09-13T09:55:55.380Z,0
2022-09-13T10:10:57.626Z,0
2022-09-13T10:25:59.979Z,0
2022-09-13T10:41:02.229Z,0
2022-09-13T10:56:04.423Z,0
2022-09-13T11:11:06.924Z,0
2022-09-13T11:26:09.305Z,0
2022-09-13T11:41:11.538Z,0
2022-09-13T11:56:13.765Z,0
2022-09-13T12:11:16.380Z,0
2022-09-13T12:26:18.692Z,0
2022-09-13T12:41:20.913Z,0
2022-09-13T12:56:23.161Z,0.94166
2022-09-13T13:11:25.532Z,6.59165
2022-09-13T13:26:27.733Z,32.95824
2022-09-13T13:41:29.958Z,94.16639
2022-09-13T13:56:32.199Z,233.53265
2022-09-13T14:11:34.500Z,385.14053
2022-09-13T14:26:36.749Z,618.67322
2022-09-13T14:41:38.991Z,884.22241
2022-09-13T14:56:41.285Z,916.23901
2022-09-13T15:11:44.550Z,889.87238
2022-09-13T15:26:46.903Z,1152.59668
2022-09-13T15:41:49.136Z,1602.71204
2022-09-13T15:56:51.412Z,1788.21973
2022-09-13T16:11:53.666Z,1843.77795
2022-09-13T16:26:55.951Z,2346.62646
2022-09-13T16:41:58.346Z,3468.14819
2022-09-13T16:57:00.553Z,7633.12793
2022-09-13T17:12:02.830Z,10650.21875
2022-09-13T17:27:05.042Z,10460.00293
2022-09-13T17:42:07.300Z,10250.95312
2022-09-13T17:57:09.579Z,10091.8125
2022-09-13T18:12:11.833Z,9965.62891
2022-09-13T18:27:14.051Z,9196.29004
2022-09-13T18:42:16.389Z,10000.4707
2022-09-13T18:57:18.642Z,9994.82129
2022-09-13T19:12:20.959Z,9953.3877
2022-09-13T19:27:23.151Z,9626.62988
2022-09-13T19:42:25.377Z,7837.46875
2022-09-13T19:57:27.874Z,9284.80664
2022-09-13T20:12:30.127Z,4425.82031
2022-09-13T20:27:32.334Z,2918.21655
2022-09-13T20:42:34.544Z,2510.47607
2022-09-13T20:57:37.041Z,4716.79443
2022-09-13T21:12:39.363Z,4309.99561
2022-09-13T21:27:41.633Z,8618.1084
2022-09-13T21:42:43.902Z,9224.54004
2022-09-13T21:57:46.205Z,3594.3313
2022-09-13T22:12:48.453Z,3443.66504
2022-09-13T22:27:50.705Z,7341.21191
2022-09-13T22:42:52.945Z,6780.92188
2022-09-13T22:57:55.209Z,6594.47266
2022-09-13T23:12:57.421Z,5712.1333
2022-09-13T23:27:59.654Z,2043.41077
2022-09-13T23:43:01.952Z,1305.14624
2022-09-13T23:58:04.207Z,1137.53003
